YQB weather

Quebec Jean Lesage International Airport
Quebec, Quebec, Canada

Public forecast

Using degrees Celsius for public forecast. Weather courtesy of forecast.io.

Current aviation weather report (METAR) for Quebec Jean Lesage International Airport

Retrieved 2020/03/30 21:26 UTC (34 minutes ago):

CYQB 302126Z 06019G30KT 20SM -SN SCT017 BKN039 OVC069 01/M02 A3010 RMK SC3SC5AC1 SLP199

Aviation forecast (TAF) for Quebec Jean Lesage International Airport

Retrieved 2020/03/30 18:42 UTC (3 hours ago):

TAF TAF CYQB 301738Z 3018/3118 07015G25KT 2SM -SN BR OVC005 TEMPO 3018/3021 6SM -RASN SCT005 OVC015 FM302100 08015G25KT 4SM -SNRA BR BKN012 OVC025 TEMPO 3021/3101 P6SM NSW SCT012 OVC025 PROB40 3021/3101 OVC008 FM310100 08012G22KT P6SM SCT020 OVC040 TEMPO 3101/3103 P6SM -SN OVC020 FM310500 07012KT P6SM OVC080 FM310900 06012KT P6SM SCT100 BKN180 RMK NXT FCST BY 310000Z